createdAt,value
2022-08-17T00:00:43.547Z,97664.03
2022-08-17T00:03:22.356Z,97665.38
2022-08-17T00:05:56.888Z,97662.44
2022-08-17T00:08:38.653Z,97666.56
2022-08-17T00:11:10.333Z,97672.72
2022-08-17T00:13:44.073Z,97673.22
2022-08-17T00:16:55.348Z,97678.66
2022-08-17T00:19:24.115Z,97669.34
2022-08-17T00:22:31.890Z,97677.69
2022-08-17T00:24:45.726Z,97678.31
2022-08-17T00:27:15.002Z,97679.75
2022-08-17T00:29:45.566Z,97680.22
2022-08-17T00:33:13.838Z,97693.41
2022-08-17T00:35:09.401Z,97697.63
2022-08-17T00:37:38.733Z,97683.59
2022-08-17T00:40:08.931Z,97694.50
2022-08-17T00:42:38.484Z,97679.88
2022-08-17T00:45:11.086Z,97684.72
2022-08-17T00:47:40.603Z,97673.44
2022-08-17T00:50:13.072Z,97677.56
2022-08-17T00:52:55.828Z,97680.09
2022-08-17T00:55:26.280Z,97674.25
2022-08-17T00:57:59.591Z,97676.66
2022-08-17T01:00:42.455Z,97679.78
2022-08-17T01:03:16.914Z,97681.59
2022-08-17T01:05:46.174Z,97682.69
2022-08-17T01:08:17.158Z,97673.09
2022-08-17T01:11:00.186Z,97674.78
2022-08-17T01:13:40.336Z,97680.66
2022-08-17T01:16:16.189Z,97687.44
2022-08-17T01:18:47.478Z,97692.00
2022-08-17T01:21:47.850Z,97686.19
2022-08-17T01:24:17.683Z,97687.84
2022-08-17T01:26:47.970Z,97690.34
2022-08-17T01:29:18.922Z,97690.84
2022-08-17T01:31:53.564Z,97689.22
2022-08-17T01:34:24.936Z,97695.88
2022-08-17T01:37:08.870Z,97699.81
2022-08-17T01:40:20.351Z,97692.56
2022-08-17T01:42:52.974Z,97692.13
2022-08-17T01:45:26.644Z,97693.94
2022-08-17T01:47:56.797Z,97685.78
2022-08-17T01:50:34.953Z,97693.00
2022-08-17T01:53:31.060Z,97694.63
2022-08-17T01:56:03.387Z,97693.06
2022-08-17T01:58:32.905Z,97681.69
2022-08-17T02:01:02.973Z,97692.38
2022-08-17T02:03:33.176Z,97685.41
2022-08-17T02:06:02.553Z,97687.47
2022-08-17T02:08:38.865Z,97688.78
2022-08-17T02:11:25.331Z,97682.69
2022-08-17T02:13:57.809Z,97690.72
2022-08-17T02:16:37.047Z,97684.78
2022-08-17T02:19:14.289Z,97679.41
2022-08-17T02:21:45.079Z,97686.84
2022-08-17T02:24:17.636Z,97688.03
2022-08-17T02:27:07.069Z,97685.88
2022-08-17T02:29:36.309Z,97687.31
2022-08-17T02:32:06.222Z,97674.03
2022-08-17T02:34:35.909Z,97667.03
2022-08-17T02:37:05.967Z,97666.72
2022-08-17T02:39:35.302Z,97672.72
2022-08-17T02:42:05.470Z,97668.81
2022-08-17T02:44:38.858Z,97667.19
2022-08-17T02:47:09.422Z,97663.44
2022-08-17T02:49:38.870Z,97661.97
2022-08-17T02:52:09.451Z,97668.69
2022-08-17T02:54:42.259Z,97669.16
2022-08-17T02:57:13.360Z,97666.97
2022-08-17T02:59:48.812Z,97665.09
2022-08-17T03:02:18.746Z,97660.56
2022-08-17T03:04:48.094Z,97657.66
2022-08-17T03:07:17.556Z,97655.59
2022-08-17T03:09:46.899Z,97655.47
2022-08-17T03:12:18.044Z,97660.72
2022-08-17T03:14:47.278Z,97654.91
2022-08-17T03:17:17.114Z,97661.31
2022-08-17T03:19:47.128Z,97650.81
2022-08-17T03:22:34.679Z,97660.31
2022-08-17T03:25:10.522Z,97651.13
2022-08-17T03:27:42.071Z,97653.63
2022-08-17T03:30:15.911Z,97647.78
2022-08-17T03:32:48.127Z,97649.09
2022-08-17T03:35:19.037Z,97658.59
2022-08-17T03:38:00.061Z,97659.00
2022-08-17T03:40:36.985Z,97656.56
2022-08-17T03:43:20.946Z,97647.94
2022-08-17T03:46:02.848Z,97652.47
2022-08-17T03:48:45.420Z,97663.97
2022-08-17T03:51:40.040Z,97667.16
2022-08-17T03:54:22.292Z,97658.69
2022-08-17T03:57:02.177Z,97658.13
2022-08-17T03:59:31.819Z,97655.50
2022-08-17T04:02:04.813Z,97660.47
2022-08-17T04:04:34.060Z,97663.97
2022-08-17T04:07:03.540Z,97655.66
2022-08-17T04:09:32.888Z,97662.50
2022-08-17T04:12:04.833Z,97663.09
2022-08-17T04:14:39.235Z,97659.59
2022-08-17T04:17:24.360Z,97668.47
2022-08-17T04:19:53.744Z,97669.63
2022-08-17T04:22:31.994Z,97672.25
2022-08-17T04:25:20.421Z,97674.13
2022-08-17T04:27:50.120Z,97674.13
2022-08-17T04:30:19.554Z,97678.22
2022-08-17T04:33:20.854Z,97668.03
2022-08-17T04:35:53.250Z,97673.13
2022-08-17T04:38:24.999Z,97669.19
2022-08-17T04:41:07.125Z,97658.56
2022-08-17T04:43:37.060Z,97664.81
2022-08-17T04:46:12.084Z,97675.91
2022-08-17T04:48:45.808Z,97681.56
2022-08-17T04:51:16.672Z,97671.22
2022-08-17T04:53:55.016Z,97671.81
2022-08-17T04:56:25.962Z,97673.28
2022-08-17T04:58:57.519Z,97671.97
2022-08-17T05:01:28.494Z,97680.44
2022-08-17T05:03:59.791Z,97686.97
2022-08-17T05:06:49.700Z,97684.94
2022-08-17T05:09:20.209Z,97691.25
2022-08-17T05:11:49.718Z,97688.34
2022-08-17T05:14:18.983Z,97688.03
2022-08-17T05:16:49.431Z,97685.25
2022-08-17T05:19:18.708Z,97693.69
2022-08-17T05:21:47.967Z,97696.78
2022-08-17T05:24:43.083Z,97690.22
2022-08-17T05:27:06.951Z,97698.53
2022-08-17T05:29:36.538Z,97693.56
2022-08-17T05:32:38.288Z,97696.91
2022-08-17T05:35:02.764Z,97699.66
2022-08-17T05:37:32.061Z,97696.97
2022-08-17T05:40:01.518Z,97695.66
2022-08-17T05:42:30.837Z,97697.81
2022-08-17T05:45:00.958Z,97708.16
2022-08-17T05:47:30.442Z,97707.53
2022-08-17T05:50:00.186Z,97701.94
2022-08-17T05:52:36.513Z,97710.22
2022-08-17T05:55:17.129Z,97706.78
2022-08-17T05:57:56.261Z,97705.44
2022-08-17T06:00:32.041Z,97695.72
2022-08-17T06:03:39.986Z,97702.94
2022-08-17T06:06:31.193Z,97696.00
2022-08-17T06:09:33.459Z,97701.16
2022-08-17T06:12:22.097Z,97689.50
2022-08-17T06:15:03.926Z,97704.63
2022-08-17T06:17:33.681Z,97705.59
2022-08-17T06:20:08.055Z,97708.88
2022-08-17T06:22:40.633Z,97711.00
2022-08-17T06:25:47.045Z,97704.84
2022-08-17T06:28:19.918Z,97710.31
2022-08-17T06:30:59.855Z,97704.91
2022-08-17T06:33:35.033Z,97706.50
2022-08-17T06:36:16.328Z,97706.03
2022-08-17T06:39:01.962Z,97696.81
2022-08-17T06:41:49.957Z,97702.84
2022-08-17T06:44:43.210Z,97698.97
2022-08-17T06:47:16.357Z,97706.44
2022-08-17T06:50:08.059Z,97708.09
2022-08-17T06:52:46.588Z,97716.66
2022-08-17T06:55:26.387Z,97716.13
2022-08-17T06:58:02.132Z,97719.31
2022-08-17T07:00:40.804Z,97718.25
2022-08-17T07:03:19.135Z,97715.81
2022-08-17T07:05:51.609Z,97712.56
2022-08-17T07:08:35.246Z,97707.19
2022-08-17T07:11:08.214Z,97713.59
2022-08-17T07:14:17.117Z,97715.16
2022-08-17T07:16:52.137Z,97714.84
2022-08-17T07:19:24.885Z,97719.06
2022-08-17T07:21:58.579Z,97710.16
2022-08-17T07:24:39.240Z,97708.44
2022-08-17T07:27:23.681Z,97707.50
2022-08-17T07:29:56.683Z,97715.06
2022-08-17T07:32:31.662Z,97700.28
2022-08-17T07:35:11.875Z,97705.91
2022-08-17T07:38:05.354Z,97705.41
2022-08-17T07:40:58.104Z,97702.97
2022-08-17T07:43:32.947Z,97701.56
2022-08-17T07:46:26.457Z,97702.50
2022-08-17T07:49:03.286Z,97694.31
2022-08-17T07:51:36.595Z,97704.13
2022-08-17T07:54:24.232Z,97705.06
2022-08-17T07:57:07.249Z,97708.63
2022-08-17T07:59:41.784Z,97714.88
2022-08-17T08:02:38.340Z,97705.69
2022-08-17T08:05:48.577Z,97702.59
2022-08-17T08:08:35.551Z,97697.28
2022-08-17T08:11:15.483Z,97706.91
2022-08-17T08:13:46.226Z,97708.66
2022-08-17T08:16:17.485Z,97710.19
2022-08-17T08:18:54.152Z,97716.31
2022-08-17T08:21:31.820Z,97723.84
2022-08-17T08:24:30.097Z,97718.72
2022-08-17T08:27:38.602Z,97725.34
2022-08-17T08:30:07.800Z,97715.97
2022-08-17T08:33:12.597Z,97717.31
2022-08-17T08:35:58.583Z,97706.25
2022-08-17T08:38:48.382Z,97711.41
2022-08-17T08:41:33.381Z,97708.44
2022-08-17T08:44:12.964Z,97718.84
2022-08-17T08:46:54.363Z,97719.84
2022-08-17T08:50:03.276Z,97706.69
2022-08-17T08:53:06.894Z,97723.59
2022-08-17T08:55:54.928Z,97719.81
2022-08-17T08:59:08.887Z,97719.34
2022-08-17T09:02:19.802Z,97712.66
2022-08-17T09:05:14.483Z,97713.13
2022-08-17T09:08:21.856Z,97709.13
2022-08-17T09:11:02.823Z,97702.81
2022-08-17T09:13:43.769Z,97714.84
2022-08-17T09:16:20.422Z,97705.66
2022-08-17T09:19:00.840Z,97703.66
2022-08-17T09:21:55.304Z,97701.91
2022-08-17T09:24:39.254Z,97708.84
2022-08-17T09:27:18.465Z,97706.38
2022-08-17T09:29:53.320Z,97696.75
2022-08-17T09:32:28.501Z,97699.63
2022-08-17T09:35:02.046Z,97708.34
2022-08-17T09:38:05.446Z,97699.06
2022-08-17T09:40:46.357Z,97695.63
2022-08-17T09:43:34.075Z,97702.81
2022-08-17T09:46:08.163Z,97696.47
2022-08-17T09:48:45.880Z,97688.00
2022-08-17T09:51:23.588Z,97686.69
2022-08-17T09:53:53.119Z,97696.59
2022-08-17T09:56:46.365Z,97681.06
2022-08-17T09:59:38.448Z,97686.75
2022-08-17T10:02:31.341Z,97693.16
2022-08-17T10:05:34.459Z,97692.91
2022-08-17T10:08:32.458Z,97683.47
2022-08-17T10:11:54.479Z,97676.06
2022-08-17T10:14:36.835Z,97685.25
2022-08-17T10:17:25.510Z,97679.81
2022-08-17T10:20:15.023Z,97681.25
2022-08-17T10:23:03.210Z,97682.81
2022-08-17T10:25:55.036Z,97680.06
2022-08-17T10:28:29.692Z,97679.44
2022-08-17T10:31:33.098Z,97673.56
2022-08-17T10:34:18.800Z,97668.22
2022-08-17T10:36:58.269Z,97666.38
2022-08-17T10:39:50.501Z,97672.34
2022-08-17T10:42:33.740Z,97661.31
2022-08-17T10:45:09.149Z,97657.22
2022-08-17T10:48:06.863Z,97665.81
2022-08-17T10:51:07.539Z,97652.16
2022-08-17T10:53:40.757Z,97658.84
2022-08-17T10:56:17.561Z,97656.94
2022-08-17T10:59:05.862Z,97654.88
2022-08-17T11:01:35.519Z,97656.97
2022-08-17T11:04:10.156Z,97652.34
2022-08-17T11:07:02.280Z,97651.34
2022-08-17T11:10:05.825Z,97656.81
2022-08-17T11:12:44.415Z,97654.44
2022-08-17T11:15:24.651Z,97644.31
2022-08-17T11:18:12.688Z,97649.16
2022-08-17T11:21:08.621Z,97650.66
2022-08-17T11:23:57.377Z,97650.13
2022-08-17T11:26:33.685Z,97649.50
2022-08-17T11:29:09.712Z,97648.13
2022-08-17T11:31:42.676Z,97643.28
2022-08-17T11:34:17.013Z,97643.38
2022-08-17T11:36:56.538Z,97641.34
2022-08-17T11:39:35.490Z,97647.78
2022-08-17T11:42:09.028Z,97630.81
2022-08-17T11:45:32.547Z,97631.56
2022-08-17T11:48:38.218Z,97624.38
2022-08-17T11:51:36.312Z,97632.03
2022-08-17T11:54:33.430Z,97624.94
2022-08-17T11:57:29.443Z,97617.75
2022-08-17T12:00:07.462Z,97619.78
2022-08-17T12:02:47.490Z,97611.22
2022-08-17T12:05:17.630Z,97600.63
2022-08-17T12:07:58.699Z,97604.28
2022-08-17T12:10:32.022Z,97606.56
2022-08-17T12:13:02.801Z,97609.44
2022-08-17T12:15:38.878Z,97608.66
2022-08-17T12:18:08.261Z,97612.09
2022-08-17T12:20:43.195Z,97604.97
2022-08-17T12:23:19.353Z,97604.13
2022-08-17T12:26:06.195Z,97606.88
2022-08-17T12:28:38.772Z,97606.78
2022-08-17T12:31:35.335Z,97606.00
2022-08-17T12:34:06.405Z,97606.63
2022-08-17T12:36:36.208Z,97605.34
2022-08-17T12:39:14.387Z,97606.69
2022-08-17T12:41:57.355Z,97614.31
2022-08-17T12:44:35.355Z,97618.53
2022-08-17T12:47:20.989Z,97620.00
2022-08-17T12:49:53.232Z,97615.78
2022-08-17T12:52:24.696Z,97611.50
2022-08-17T12:55:00.455Z,97621.53
2022-08-17T12:57:51.414Z,97631.56
2022-08-17T13:00:34.829Z,97630.94
2022-08-17T13:03:15.712Z,97627.50
2022-08-17T13:05:55.069Z,97623.53
2022-08-17T13:08:31.104Z,97616.56
2022-08-17T13:11:06.853Z,97613.09
2022-08-17T13:13:39.093Z,97608.22
2022-08-17T13:16:12.746Z,97619.59
2022-08-17T13:18:47.177Z,97615.47
2022-08-17T13:21:22.373Z,97609.88
2022-08-17T13:24:06.031Z,97607.06
2022-08-17T13:26:38.764Z,97606.94
2022-08-17T13:29:10.129Z,97604.22
2022-08-17T13:31:52.916Z,97601.91
2022-08-17T13:34:28.892Z,97602.56
2022-08-17T13:37:27.020Z,97593.94
2022-08-17T13:40:09.372Z,97595.88
2022-08-17T13:42:48.098Z,97592.28
2022-08-17T13:45:35.428Z,97583.09
2022-08-17T13:48:14.408Z,97581.16
2022-08-17T13:50:46.442Z,97581.13
2022-08-17T13:53:25.366Z,97573.94
2022-08-17T13:56:03.510Z,97574.69
2022-08-17T13:58:41.136Z,97571.88
2022-08-17T14:01:32.287Z,97574.09
2022-08-17T14:04:03.159Z,97572.03
2022-08-17T14:06:55.095Z,97567.13
2022-08-17T14:09:33.557Z,97568.50
2022-08-17T14:12:08.696Z,97564.16
2022-08-17T14:14:37.902Z,97571.19
2022-08-17T14:17:07.911Z,97568.28
2022-08-17T14:19:38.405Z,97582.38
2022-08-17T14:22:10.084Z,97578.84
2022-08-17T14:24:44.843Z,97578.13
2022-08-17T14:27:18.095Z,97575.25
2022-08-17T14:29:47.744Z,97577.31
2022-08-17T14:32:28.865Z,97575.13
2022-08-17T14:34:59.390Z,97579.38
2022-08-17T14:37:31.515Z,97582.28
2022-08-17T14:40:03.071Z,97583.13
2022-08-17T14:42:35.554Z,97582.53
2022-08-17T14:45:06.459Z,97581.84
2022-08-17T14:47:55.694Z,97578.41
2022-08-17T14:50:25.092Z,97572.78
2022-08-17T14:52:56.207Z,97567.94
2022-08-17T14:55:27.333Z,97580.06
2022-08-17T14:57:56.558Z,97572.41
2022-08-17T15:00:26.873Z,97568.22
2022-08-17T15:02:59.022Z,97563.47
2022-08-17T15:05:34.907Z,97560.78
2022-08-17T15:08:05.628Z,97563.03
2022-08-17T15:10:35.728Z,97565.97
2022-08-17T15:13:05.044Z,97562.50
2022-08-17T15:15:34.614Z,97555.50
2022-08-17T15:18:04.061Z,97556.81
2022-08-17T15:20:33.882Z,97546.09
2022-08-17T15:23:03.133Z,97551.78
2022-08-17T15:25:34.412Z,97547.50
2022-08-17T15:28:04.401Z,97535.97
2022-08-17T15:30:34.423Z,97537.78
2022-08-17T15:33:04.788Z,97546.78
2022-08-17T15:35:36.158Z,97537.47
2022-08-17T15:38:12.022Z,97524.63
2022-08-17T15:40:46.201Z,97541.53
2022-08-17T15:43:22.043Z,97540.78
2022-08-17T15:46:12.701Z,97536.53
2022-08-17T15:48:44.727Z,97541.47
2022-08-17T15:51:19.597Z,97546.34
2022-08-17T15:53:54.403Z,97539.28
2022-08-17T15:56:23.848Z,97541.34
2022-08-17T15:58:53.123Z,97534.19
2022-08-17T16:03:01.793Z,97535.56
2022-08-17T16:04:29.610Z,97535.50
2022-08-17T16:07:00.052Z,97537.56
2022-08-17T16:09:29.575Z,97534.66
2022-08-17T16:11:58.821Z,97526.75
2022-08-17T16:14:33.515Z,97526.66
2022-08-17T16:17:04.728Z,97523.03
2022-08-17T16:19:35.291Z,97523.69
2022-08-17T16:22:04.938Z,97527.81
2022-08-17T16:24:34.897Z,97524.94
2022-08-17T16:27:04.201Z,97534.03
2022-08-17T16:29:42.620Z,97526.81
2022-08-17T16:32:19.271Z,97527.38
2022-08-17T16:35:04.668Z,97523.78
2022-08-17T16:37:34.269Z,97521.63
2022-08-17T16:40:04.428Z,97521.63
2022-08-17T16:42:36.033Z,97518.81
2022-08-17T16:45:08.261Z,97511.00
2022-08-17T16:47:37.492Z,97502.47
2022-08-17T16:50:09.334Z,97506.69
2022-08-17T16:52:38.810Z,97510.88
2022-08-17T16:55:13.398Z,97514.31
2022-08-17T16:57:47.276Z,97528.97
2022-08-17T17:00:21.139Z,97530.25
2022-08-17T17:02:51.817Z,97540.75
2022-08-17T17:05:39.646Z,97529.38
2022-08-17T17:08:17.763Z,97528.63
2022-08-17T17:10:55.944Z,97529.94
2022-08-17T17:13:33.757Z,97526.31
2022-08-17T17:16:17.314Z,97538.88
2022-08-17T17:19:07.048Z,97537.22
2022-08-17T17:21:56.146Z,97547.66
2022-08-17T17:24:32.436Z,97542.59
2022-08-17T17:27:16.198Z,97547.38
2022-08-17T17:30:07.623Z,97545.06
2022-08-17T17:32:41.887Z,97548.41
2022-08-17T17:35:17.241Z,97554.53
2022-08-17T17:37:47.426Z,97562.78
2022-08-17T17:40:27.573Z,97559.00
2022-08-17T17:43:09.465Z,97548.88
2022-08-17T17:46:07.578Z,97553.59
2022-08-17T17:48:49.091Z,97560.88
2022-08-17T17:52:07.134Z,97554.38
2022-08-17T17:54:52.324Z,97555.63
2022-08-17T17:57:28.473Z,97566.69
2022-08-17T18:00:13.749Z,97562.25
2022-08-17T18:02:53.111Z,97567.66
2022-08-17T18:05:53.997Z,97573.06
2022-08-17T18:08:41.635Z,97577.81
2022-08-17T18:11:27.209Z,97567.00
2022-08-17T18:14:17.317Z,97568.22
2022-08-17T18:16:48.162Z,97561.03
2022-08-17T18:19:20.861Z,97570.72
2022-08-17T18:21:52.779Z,97578.34
2022-08-17T18:24:37.955Z,97585.94
2022-08-17T18:27:21.029Z,97582.94
2022-08-17T18:29:51.062Z,97561.00
2022-08-17T18:32:27.068Z,97562.28
2022-08-17T18:35:00.241Z,97561.41
2022-08-17T18:37:37.705Z,97557.03
2022-08-17T18:40:19.527Z,97553.94
2022-08-17T18:43:09.179Z,97555.78
2022-08-17T18:45:48.440Z,97563.03
2022-08-17T18:48:26.697Z,97565.47
2022-08-17T18:50:58.917Z,97567.88
2022-08-17T18:53:41.293Z,97566.81
2022-08-17T18:56:30.540Z,97579.75
2022-08-17T18:59:27.101Z,97574.41
2022-08-17T19:02:01.917Z,97580.22
2022-08-17T19:04:44.574Z,97578.50
2022-08-17T19:07:27.920Z,97585.16
2022-08-17T19:10:08.372Z,97572.00
2022-08-17T19:12:43.199Z,97577.31
2022-08-17T19:15:14.920Z,97580.97
2022-08-17T19:17:55.479Z,97582.16
2022-08-17T19:20:31.589Z,97576.34
2022-08-17T19:23:33.218Z,97577.47
2022-08-17T19:26:06.381Z,97571.47
2022-08-17T19:28:59.974Z,97575.06
2022-08-17T19:31:31.828Z,97573.44
2022-08-17T19:34:02.938Z,97573.22
2022-08-17T19:36:53.760Z,97561.78
2022-08-17T19:39:38.075Z,97567.78
2022-08-17T19:42:15.845Z,97571.69
2022-08-17T19:45:15.053Z,97572.81
2022-08-17T19:48:03.428Z,97568.94
2022-08-17T19:50:49.760Z,97559.66
2022-08-17T19:54:01.750Z,97565.75
2022-08-17T19:56:42.541Z,97562.56
2022-08-17T19:59:37.280Z,97560.31
2022-08-17T20:02:45.071Z,97559.44
2022-08-17T20:05:17.731Z,97564.78
2022-08-17T20:08:08.057Z,97565.22
2022-08-17T20:10:45.264Z,97559.28
2022-08-17T20:13:33.605Z,97563.81
2022-08-17T20:16:04.571Z,97564.13
2022-08-17T20:19:01.120Z,97571.59
2022-08-17T20:21:38.143Z,97567.09
2022-08-17T20:24:17.806Z,97571.72
2022-08-17T20:27:00.987Z,97572.84
2022-08-17T20:29:39.573Z,97581.59
2022-08-17T20:32:31.679Z,97576.44
2022-08-17T20:35:19.364Z,97574.19
2022-08-17T20:38:11.023Z,97576.72
2022-08-17T20:40:41.560Z,97573.03
2022-08-17T20:43:32.605Z,97585.38
2022-08-17T20:46:07.571Z,97583.00
2022-08-17T20:48:41.105Z,97573.00
2022-08-17T20:51:29.893Z,97564.34
2022-08-17T20:54:04.220Z,97561.88
2022-08-17T20:56:46.678Z,97562.22
2022-08-17T20:59:25.771Z,97573.00
2022-08-17T21:02:18.419Z,97564.31
2022-08-17T21:04:54.556Z,97575.09
2022-08-17T21:07:43.202Z,97577.41
2022-08-17T21:10:28.126Z,97583.97
2022-08-17T21:13:23.227Z,97584.91
2022-08-17T21:16:06.811Z,97596.41
2022-08-17T21:18:47.657Z,97605.19
2022-08-17T21:21:32.149Z,97609.16
2022-08-17T21:24:16.324Z,97609.34
2022-08-17T21:27:03.033Z,97606.22
2022-08-17T21:29:33.956Z,97609.03
2022-08-17T21:32:06.625Z,97606.84
2022-08-17T21:34:44.013Z,97601.78
2022-08-17T21:37:25.441Z,97610.56
2022-08-17T21:40:03.368Z,97615.94
2022-08-17T21:42:35.047Z,97612.84
2022-08-17T21:45:20.543Z,97611.91
2022-08-17T21:48:11.101Z,97611.59
2022-08-17T21:50:41.731Z,97615.41
2022-08-17T21:53:15.164Z,97612.38
2022-08-17T21:55:44.529Z,97610.13
2022-08-17T21:58:33.624Z,97602.88
2022-08-17T22:01:34.361Z,97605.22
2022-08-17T22:04:15.277Z,97604.91
2022-08-17T22:06:52.270Z,97615.75
2022-08-17T22:09:32.767Z,97614.75
2022-08-17T22:12:20.935Z,97605.47
2022-08-17T22:15:10.563Z,97603.88
2022-08-17T22:17:44.992Z,97602.34
2022-08-17T22:20:18.689Z,97610.47
2022-08-17T22:23:00.158Z,97609.66
2022-08-17T22:25:31.165Z,97611.50
2022-08-17T22:28:01.603Z,97621.06
2022-08-17T22:30:33.617Z,97619.63
2022-08-17T22:33:05.087Z,97625.94
2022-08-17T22:35:45.638Z,97628.50
2022-08-17T22:38:20.728Z,97640.03
2022-08-17T22:40:55.694Z,97626.09
2022-08-17T22:43:28.680Z,97637.44
2022-08-17T22:46:01.968Z,97637.44
2022-08-17T22:48:32.642Z,97641.00
2022-08-17T22:51:14.707Z,97634.28
2022-08-17T22:54:03.810Z,97637.78
2022-08-17T22:56:45.639Z,97635.88
2022-08-17T22:59:24.062Z,97623.47
2022-08-17T23:02:20.488Z,97628.22
2022-08-17T23:05:00.190Z,97619.88
2022-08-17T23:07:29.401Z,97621.69
2022-08-17T23:10:00.318Z,97623.25
2022-08-17T23:12:29.844Z,97616.22
2022-08-17T23:15:03.956Z,97612.09
2022-08-17T23:17:37.464Z,97601.06
2022-08-17T23:20:09.532Z,97611.16
2022-08-17T23:22:51.431Z,97596.72
2022-08-17T23:25:28.791Z,97596.09
2022-08-17T23:28:01.670Z,97593.31
2022-08-17T23:30:32.880Z,97605.06
2022-08-17T23:33:04.257Z,97609.19
2022-08-17T23:35:40.461Z,97609.00
2022-08-17T23:38:11.730Z,97615.28
2022-08-17T23:40:41.085Z,97616.19
2022-08-17T23:43:24.655Z,97613.16
2022-08-17T23:45:59.822Z,97618.09
2022-08-17T23:48:36.010Z,97611.19
2022-08-17T23:51:09.182Z,97606.75
2022-08-17T23:53:40.337Z,97618.50
2022-08-17T23:56:11.487Z,97615.59
2022-08-17T23:58:45.403Z,97608.38
